Terminal Aerodrome Forecast
Issued by NWS

Home | Current Version | Previous Version | Graphics & Text | Print | Product List | Glossary On
Versions: 1 2 3 4 5 6 7 8 9 10 11 12 13 14 15 16 17 18 19 20 21
000
FTUS43 KICT 250705 AAA
TAFRSL
TAF AMD
KRSL 250705Z 2507/2606 03008KT 5SM -TSRA BKN035 OVC050CB
     FM251000 04008KT P6SM VCSH BKN010 OVC070
     FM251600 06008KT P6SM SCT035 BKN100
     FM252200 07009KT P6SM VCTS SCT035CB BKN080=

USA.gov is the U.S. government's official web portal to all federal, state and local government web resources and services.